sensor_id;sensor_type;location;lat;lon;timestamp;P1;durP1;ratioP1;P2;durP2;ratioP2
22213;SDS011;11276;43.566;27.824;2022-09-03T00:00:13;7.10;;;3.30;;
22213;SDS011;11276;43.566;27.824;2022-09-03T00:08:13;7.50;;;4.00;;
22213;SDS011;11276;43.566;27.824;2022-09-03T00:11:04;7.80;;;3.47;;
22213;SDS011;11276;43.566;27.824;2022-09-03T00:13:49;7.90;;;4.23;;
22213;SDS011;11276;43.566;27.824;2022-09-03T00:16:23;11.30;;;4.70;;
22213;SDS011;11276;43.566;27.824;2022-09-03T00:18:58;8.17;;;4.17;;
22213;SDS011;11276;43.566;27.824;2022-09-03T00:24:34;10.43;;;4.90;;
22213;SDS011;11276;43.566;27.824;2022-09-03T00:27:05;7.70;;;5.00;;
22213;SDS011;11276;43.566;27.824;2022-09-03T00:29:51;7.43;;;4.47;;
22213;SDS011;11276;43.566;27.824;2022-09-03T00:32:54;11.03;;;4.40;;
22213;SDS011;11276;43.566;27.824;2022-09-03T00:35:29;10.37;;;4.97;;
22213;SDS011;11276;43.566;27.824;2022-09-03T00:38:01;8.20;;;4.40;;
22213;SDS011;11276;43.566;27.824;2022-09-03T00:43:09;16.40;;;5.23;;
22213;SDS011;11276;43.566;27.824;2022-09-03T00:45:48;8.60;;;4.70;;
22213;SDS011;11276;43.566;27.824;2022-09-03T01:08:16;17.23;;;5.20;;
22213;SDS011;11276;43.566;27.824;2022-09-03T01:11:14;11.73;;;5.03;;
22213;SDS011;11276;43.566;27.824;2022-09-03T01:13:55;9.50;;;4.80;;
22213;SDS011;11276;43.566;27.824;2022-09-03T01:30:28;14.80;;;5.30;;
22213;SDS011;11276;43.566;27.824;2022-09-03T01:35:48;11.37;;;4.57;;
22213;SDS011;11276;43.566;27.824;2022-09-03T01:53:43;8.40;;;4.43;;
22213;SDS011;11276;43.566;27.824;2022-09-03T02:04:31;7.97;;;4.10;;
22213;SDS011;11276;43.566;27.824;2022-09-03T02:06:59;11.40;;;4.73;;
22213;SDS011;11276;43.566;27.824;2022-09-03T02:09:27;8.27;;;4.30;;
22213;SDS011;11276;43.566;27.824;2022-09-03T02:12:00;9.47;;;4.30;;
22213;SDS011;11276;43.566;27.824;2022-09-03T02:14:34;7.67;;;5.20;;
22213;SDS011;11276;43.566;27.824;2022-09-03T02:17:01;6.50;;;4.63;;
22213;SDS011;11276;43.566;27.824;2022-09-03T02:19:30;8.30;;;4.77;;
22213;SDS011;11276;43.566;27.824;2022-09-03T02:21:59;11.40;;;5.20;;
22213;SDS011;11276;43.566;27.824;2022-09-03T02:24:27;17.07;;;5.43;;
22213;SDS011;11276;43.566;27.824;2022-09-03T02:26:54;8.57;;;4.70;;
22213;SDS011;11276;43.566;27.824;2022-09-03T02:29:22;6.20;;;5.30;;
22213;SDS011;11276;43.566;27.824;2022-09-03T02:31:50;10.60;;;4.53;;
22213;SDS011;11276;43.566;27.824;2022-09-03T02:34:17;9.27;;;5.00;;
22213;SDS011;11276;43.566;27.824;2022-09-03T02:36:45;15.20;;;5.37;;
22213;SDS011;11276;43.566;27.824;2022-09-03T02:39:13;15.80;;;5.87;;
22213;SDS011;11276;43.566;27.824;2022-09-03T02:41:41;10.90;;;5.60;;
22213;SDS011;11276;43.566;27.824;2022-09-03T02:44:13;11.17;;;4.90;;
22213;SDS011;11276;43.566;27.824;2022-09-03T02:46:50;18.07;;;5.80;;
22213;SDS011;11276;43.566;27.824;2022-09-03T02:49:22;13.03;;;5.37;;
22213;SDS011;11276;43.566;27.824;2022-09-03T02:51:49;11.20;;;6.03;;
22213;SDS011;11276;43.566;27.824;2022-09-03T02:54:15;7.90;;;5.63;;
22213;SDS011;11276;43.566;27.824;2022-09-03T02:56:45;12.43;;;5.97;;
22213;SDS011;11276;43.566;27.824;2022-09-03T02:59:14;16.60;;;6.53;;
22213;SDS011;11276;43.566;27.824;2022-09-03T03:01:43;18.90;;;6.47;;
22213;SDS011;11276;43.566;27.824;2022-09-03T03:04:10;11.67;;;6.17;;
22213;SDS011;11276;43.566;27.824;2022-09-03T03:06:36;9.47;;;6.03;;
22213;SDS011;11276;43.566;27.824;2022-09-03T03:09:03;11.87;;;7.00;;
22213;SDS011;11276;43.566;27.824;2022-09-03T03:11:32;9.40;;;6.43;;
22213;SDS011;11276;43.566;27.824;2022-09-03T03:13:59;11.33;;;5.73;;
22213;SDS011;11276;43.566;27.824;2022-09-03T03:16:26;14.93;;;6.70;;
22213;SDS011;11276;43.566;27.824;2022-09-03T03:18:54;10.30;;;6.80;;
22213;SDS011;11276;43.566;27.824;2022-09-03T03:21:22;11.10;;;6.17;;
22213;SDS011;11276;43.566;27.824;2022-09-03T03:23:49;11.83;;;6.37;;
22213;SDS011;11276;43.566;27.824;2022-09-03T03:26:17;14.10;;;6.00;;
22213;SDS011;11276;43.566;27.824;2022-09-03T03:28:46;16.87;;;7.57;;
22213;SDS011;11276;43.566;27.824;2022-09-03T03:31:15;12.13;;;6.80;;
22213;SDS011;11276;43.566;27.824;2022-09-03T03:33:50;14.07;;;6.93;;
22213;SDS011;11276;43.566;27.824;2022-09-03T03:36:21;10.00;;;6.43;;
22213;SDS011;11276;43.566;27.824;2022-09-03T03:38:51;13.00;;;7.13;;
22213;SDS011;11276;43.566;27.824;2022-09-03T03:41:20;8.53;;;6.50;;
22213;SDS011;11276;43.566;27.824;2022-09-03T03:44:01;8.77;;;6.30;;
22213;SDS011;11276;43.566;27.824;2022-09-03T03:46:30;11.07;;;6.47;;
22213;SDS011;11276;43.566;27.824;2022-09-03T03:49:02;15.10;;;7.67;;
22213;SDS011;11276;43.566;27.824;2022-09-03T03:51:32;11.67;;;6.80;;
22213;SDS011;11276;43.566;27.824;2022-09-03T03:54:00;11.10;;;7.03;;
22213;SDS011;11276;43.566;27.824;2022-09-03T03:56:29;18.40;;;8.10;;
22213;SDS011;11276;43.566;27.824;2022-09-03T03:58:57;20.80;;;8.07;;
22213;SDS011;11276;43.566;27.824;2022-09-03T04:01:25;16.00;;;7.90;;
22213;SDS011;11276;43.566;27.824;2022-09-03T04:03:53;9.87;;;7.10;;
22213;SDS011;11276;43.566;27.824;2022-09-03T04:06:21;16.13;;;7.77;;
22213;SDS011;11276;43.566;27.824;2022-09-03T04:08:48;15.00;;;8.47;;
22213;SDS011;11276;43.566;27.824;2022-09-03T04:11:16;12.90;;;7.80;;
22213;SDS011;11276;43.566;27.824;2022-09-03T04:13:45;11.70;;;7.77;;
22213;SDS011;11276;43.566;27.824;2022-09-03T04:16:14;11.90;;;7.67;;
22213;SDS011;11276;43.566;27.824;2022-09-03T04:18:44;12.73;;;7.70;;
22213;SDS011;11276;43.566;27.824;2022-09-03T04:21:12;14.93;;;7.80;;
22213;SDS011;11276;43.566;27.824;2022-09-03T04:23:41;14.33;;;8.07;;
22213;SDS011;11276;43.566;27.824;2022-09-03T04:26:10;16.60;;;9.00;;
22213;SDS011;11276;43.566;27.824;2022-09-03T04:28:39;13.60;;;8.37;;
22213;SDS011;11276;43.566;27.824;2022-09-03T04:31:08;21.37;;;9.83;;
22213;SDS011;11276;43.566;27.824;2022-09-03T04:33:36;18.77;;;8.27;;
22213;SDS011;11276;43.566;27.824;2022-09-03T04:36:05;16.70;;;8.30;;
22213;SDS011;11276;43.566;27.824;2022-09-03T04:38:34;26.07;;;9.90;;
22213;SDS011;11276;43.566;27.824;2022-09-03T04:41:03;15.80;;;7.67;;
22213;SDS011;11276;43.566;27.824;2022-09-03T04:43:31;18.50;;;9.00;;
22213;SDS011;11276;43.566;27.824;2022-09-03T04:46:01;20.83;;;8.80;;
22213;SDS011;11276;43.566;27.824;2022-09-03T04:48:30;16.80;;;9.40;;
22213;SDS011;11276;43.566;27.824;2022-09-03T04:51:08;19.53;;;9.73;;
22213;SDS011;11276;43.566;27.824;2022-09-03T04:53:39;20.43;;;9.13;;
22213;SDS011;11276;43.566;27.824;2022-09-03T04:56:12;16.13;;;9.13;;
22213;SDS011;11276;43.566;27.824;2022-09-03T04:58:42;16.70;;;8.20;;
22213;SDS011;11276;43.566;27.824;2022-09-03T05:01:14;20.87;;;8.60;;
22213;SDS011;11276;43.566;27.824;2022-09-03T05:03:43;14.70;;;8.60;;
22213;SDS011;11276;43.566;27.824;2022-09-03T05:06:11;13.73;;;7.80;;
22213;SDS011;11276;43.566;27.824;2022-09-03T05:08:38;18.10;;;9.40;;
22213;SDS011;11276;43.566;27.824;2022-09-03T05:11:06;19.70;;;9.03;;
22213;SDS011;11276;43.566;27.824;2022-09-03T05:13:33;25.30;;;9.07;;
22213;SDS011;11276;43.566;27.824;2022-09-03T05:16:06;18.10;;;9.77;;
22213;SDS011;11276;43.566;27.824;2022-09-03T05:18:34;18.10;;;9.93;;
22213;SDS011;11276;43.566;27.824;2022-09-03T05:21:05;28.50;;;9.70;;
22213;SDS011;11276;43.566;27.824;2022-09-03T05:23:51;20.67;;;9.37;;
22213;SDS011;11276;43.566;27.824;2022-09-03T05:26:21;16.53;;;9.70;;
22213;SDS011;11276;43.566;27.824;2022-09-03T05:28:52;16.73;;;9.67;;
22213;SDS011;11276;43.566;27.824;2022-09-03T05:31:24;17.63;;;8.90;;
22213;SDS011;11276;43.566;27.824;2022-09-03T05:33:54;17.83;;;8.67;;
22213;SDS011;11276;43.566;27.824;2022-09-03T05:36:27;21.47;;;9.10;;
22213;SDS011;11276;43.566;27.824;2022-09-03T05:38:56;15.40;;;9.47;;
22213;SDS011;11276;43.566;27.824;2022-09-03T05:41:24;22.27;;;9.03;;
22213;SDS011;11276;43.566;27.824;2022-09-03T05:43:52;16.23;;;9.93;;
22213;SDS011;11276;43.566;27.824;2022-09-03T05:46:30;24.20;;;9.80;;
22213;SDS011;11276;43.566;27.824;2022-09-03T05:49:05;20.37;;;9.10;;
22213;SDS011;11276;43.566;27.824;2022-09-03T05:51:33;21.37;;;9.50;;
22213;SDS011;11276;43.566;27.824;2022-09-03T05:54:01;23.57;;;11.60;;
22213;SDS011;11276;43.566;27.824;2022-09-03T05:56:29;16.43;;;9.53;;
22213;SDS011;11276;43.566;27.824;2022-09-03T05:58:58;16.37;;;10.00;;
22213;SDS011;11276;43.566;27.824;2022-09-03T06:01:28;15.30;;;9.97;;
22213;SDS011;11276;43.566;27.824;2022-09-03T06:03:57;16.57;;;9.47;;
22213;SDS011;11276;43.566;27.824;2022-09-03T06:06:27;29.33;;;10.97;;
22213;SDS011;11276;43.566;27.824;2022-09-03T06:08:57;21.03;;;11.10;;
22213;SDS011;11276;43.566;27.824;2022-09-03T06:11:25;16.47;;;9.80;;
22213;SDS011;11276;43.566;27.824;2022-09-03T06:13:55;20.53;;;12.57;;
22213;SDS011;11276;43.566;27.824;2022-09-03T06:16:23;18.27;;;10.97;;
22213;SDS011;11276;43.566;27.824;2022-09-03T06:18:52;16.50;;;11.33;;
22213;SDS011;11276;43.566;27.824;2022-09-03T06:21:19;14.67;;;10.47;;
22213;SDS011;11276;43.566;27.824;2022-09-03T06:23:53;14.60;;;11.40;;
22213;SDS011;11276;43.566;27.824;2022-09-03T06:26:25;18.47;;;11.47;;
22213;SDS011;11276;43.566;27.824;2022-09-03T06:28:54;26.63;;;12.33;;
22213;SDS011;11276;43.566;27.824;2022-09-03T06:31:22;23.03;;;12.13;;
22213;SDS011;11276;43.566;27.824;2022-09-03T06:33:49;24.37;;;12.90;;
22213;SDS011;11276;43.566;27.824;2022-09-03T06:36:17;26.20;;;13.63;;
22213;SDS011;11276;43.566;27.824;2022-09-03T06:38:45;41.87;;;13.83;;
22213;SDS011;11276;43.566;27.824;2022-09-03T06:41:16;18.80;;;13.00;;
22213;SDS011;11276;43.566;27.824;2022-09-03T06:43:57;26.33;;;14.50;;
22213;SDS011;11276;43.566;27.824;2022-09-03T06:46:32;25.80;;;14.10;;
22213;SDS011;11276;43.566;27.824;2022-09-03T06:49:00;26.00;;;13.50;;
22213;SDS011;11276;43.566;27.824;2022-09-03T06:51:28;20.60;;;14.13;;
22213;SDS011;11276;43.566;27.824;2022-09-03T06:54:00;31.20;;;13.77;;
22213;SDS011;11276;43.566;27.824;2022-09-03T06:56:38;20.87;;;13.67;;
22213;SDS011;11276;43.566;27.824;2022-09-03T06:59:10;19.60;;;13.30;;
22213;SDS011;11276;43.566;27.824;2022-09-03T07:01:39;21.63;;;13.60;;
22213;SDS011;11276;43.566;27.824;2022-09-03T07:04:07;19.63;;;13.90;;
22213;SDS011;11276;43.566;27.824;2022-09-03T07:06:35;25.80;;;14.90;;
22213;SDS011;11276;43.566;27.824;2022-09-03T07:09:08;22.60;;;14.67;;
22213;SDS011;11276;43.566;27.824;2022-09-03T07:11:36;28.03;;;14.40;;
22213;SDS011;11276;43.566;27.824;2022-09-03T07:14:05;23.83;;;14.03;;
22213;SDS011;11276;43.566;27.824;2022-09-03T07:16:33;20.60;;;13.93;;
22213;SDS011;11276;43.566;27.824;2022-09-03T07:19:01;17.07;;;12.67;;
22213;SDS011;11276;43.566;27.824;2022-09-03T07:21:30;21.73;;;13.93;;
22213;SDS011;11276;43.566;27.824;2022-09-03T07:23:59;38.30;;;14.23;;
22213;SDS011;11276;43.566;27.824;2022-09-03T07:26:27;22.07;;;11.93;;
22213;SDS011;11276;43.566;27.824;2022-09-03T07:28:56;28.13;;;13.40;;
22213;SDS011;11276;43.566;27.824;2022-09-03T07:31:24;21.13;;;12.37;;
22213;SDS011;11276;43.566;27.824;2022-09-03T07:33:59;23.03;;;12.47;;
22213;SDS011;11276;43.566;27.824;2022-09-03T07:36:34;23.53;;;13.33;;
22213;SDS011;11276;43.566;27.824;2022-09-03T07:39:07;18.53;;;12.57;;
22213;SDS011;11276;43.566;27.824;2022-09-03T07:41:34;20.47;;;12.53;;
22213;SDS011;11276;43.566;27.824;2022-09-03T07:44:02;18.93;;;11.17;;
22213;SDS011;11276;43.566;27.824;2022-09-03T07:46:33;24.30;;;12.97;;
22213;SDS011;11276;43.566;27.824;2022-09-03T07:49:03;19.20;;;12.60;;
22213;SDS011;11276;43.566;27.824;2022-09-03T07:51:33;21.47;;;11.23;;
22213;SDS011;11276;43.566;27.824;2022-09-03T07:54:04;16.33;;;10.70;;
22213;SDS011;11276;43.566;27.824;2022-09-03T07:56:33;15.83;;;11.90;;
22213;SDS011;11276;43.566;27.824;2022-09-03T07:59:01;22.40;;;12.47;;
22213;SDS011;11276;43.566;27.824;2022-09-03T08:01:29;18.27;;;12.47;;
22213;SDS011;11276;43.566;27.824;2022-09-03T08:03:58;20.83;;;12.37;;
22213;SDS011;11276;43.566;27.824;2022-09-03T08:06:26;20.03;;;13.03;;
22213;SDS011;11276;43.566;27.824;2022-09-03T08:08:54;23.30;;;12.67;;
22213;SDS011;11276;43.566;27.824;2022-09-03T08:11:27;21.03;;;12.60;;
22213;SDS011;11276;43.566;27.824;2022-09-03T08:13:57;22.13;;;12.77;;
22213;SDS011;11276;43.566;27.824;2022-09-03T08:16:32;16.77;;;10.97;;
22213;SDS011;11276;43.566;27.824;2022-09-03T08:19:00;20.67;;;10.73;;
22213;SDS011;11276;43.566;27.824;2022-09-03T08:21:27;17.30;;;10.60;;
22213;SDS011;11276;43.566;27.824;2022-09-03T08:23:55;17.83;;;10.00;;
22213;SDS011;11276;43.566;27.824;2022-09-03T08:26:31;17.40;;;10.23;;
22213;SDS011;11276;43.566;27.824;2022-09-03T08:29:00;20.13;;;10.00;;
22213;SDS011;11276;43.566;27.824;2022-09-03T08:31:27;13.00;;;9.50;;
22213;SDS011;11276;43.566;27.824;2022-09-03T08:33:55;16.90;;;9.53;;
22213;SDS011;11276;43.566;27.824;2022-09-03T08:36:27;20.70;;;10.13;;
22213;SDS011;11276;43.566;27.824;2022-09-03T08:38:56;14.97;;;9.80;;
22213;SDS011;11276;43.566;27.824;2022-09-03T08:49:13;14.00;;;8.60;;
22213;SDS011;11276;43.566;27.824;2022-09-03T08:51:44;12.03;;;8.30;;
22213;SDS011;11276;43.566;27.824;2022-09-03T08:54:14;13.40;;;7.03;;
22213;SDS011;11276;43.566;27.824;2022-09-03T08:56:41;9.60;;;6.40;;
22213;SDS011;11276;43.566;27.824;2022-09-03T08:59:09;13.63;;;6.30;;
22213;SDS011;11276;43.566;27.824;2022-09-03T09:01:42;8.93;;;6.37;;
22213;SDS011;11276;43.566;27.824;2022-09-03T09:13:04;27.43;;;6.20;;
22213;SDS011;11276;43.566;27.824;2022-09-03T09:23:39;7.13;;;5.27;;
22213;SDS011;11276;43.566;27.824;2022-09-03T09:26:09;5.13;;;4.40;;
22213;SDS011;11276;43.566;27.824;2022-09-03T09:28:39;8.47;;;3.40;;
22213;SDS011;11276;43.566;27.824;2022-09-03T09:31:09;7.60;;;3.67;;
22213;SDS011;11276;43.566;27.824;2022-09-03T09:33:40;4.33;;;3.43;;
22213;SDS011;11276;43.566;27.824;2022-09-03T09:36:08;6.10;;;2.27;;
22213;SDS011;11276;43.566;27.824;2022-09-03T09:38:38;4.70;;;2.57;;
22213;SDS011;11276;43.566;27.824;2022-09-03T09:41:15;3.10;;;2.43;;
22213;SDS011;11276;43.566;27.824;2022-09-03T09:43:46;3.33;;;2.33;;
22213;SDS011;11276;43.566;27.824;2022-09-03T09:46:15;4.70;;;2.07;;
22213;SDS011;11276;43.566;27.824;2022-09-03T09:56:27;5.40;;;3.20;;
22213;SDS011;11276;43.566;27.824;2022-09-03T09:59:03;8.70;;;3.87;;
22213;SDS011;11276;43.566;27.824;2022-09-03T10:01:32;2.73;;;2.53;;
22213;SDS011;11276;43.566;27.824;2022-09-03T10:06:39;2.43;;;2.23;;
22213;SDS011;11276;43.566;27.824;2022-09-03T10:09:23;2.50;;;2.00;;
22213;SDS011;11276;43.566;27.824;2022-09-03T10:14:56;3.57;;;2.17;;
22213;SDS011;11276;43.566;27.824;2022-09-03T10:17:39;4.60;;;2.47;;
22213;SDS011;11276;43.566;27.824;2022-09-03T10:20:43;7.03;;;2.93;;
22213;SDS011;11276;43.566;27.824;2022-09-03T10:23:23;3.90;;;2.73;;
22213;SDS011;11276;43.566;27.824;2022-09-03T10:28:33;10.10;;;3.70;;
22213;SDS011;11276;43.566;27.824;2022-09-03T10:39:24;3.97;;;2.57;;
22213;SDS011;11276;43.566;27.824;2022-09-03T10:44:54;7.37;;;2.83;;
22213;SDS011;11276;43.566;27.824;2022-09-03T10:50:46;7.80;;;3.17;;
22213;SDS011;11276;43.566;27.824;2022-09-03T11:07:39;2.70;;;2.40;;
22213;SDS011;11276;43.566;27.824;2022-09-03T11:10:14;3.27;;;2.30;;
22213;SDS011;11276;43.566;27.824;2022-09-03T11:12:48;4.83;;;2.77;;
22213;SDS011;11276;43.566;27.824;2022-09-03T11:15:30;5.27;;;3.33;;
22213;SDS011;11276;43.566;27.824;2022-09-03T11:20:57;12.63;;;2.90;;
22213;SDS011;11276;43.566;27.824;2022-09-03T11:23:32;3.53;;;2.90;;
22213;SDS011;11276;43.566;27.824;2022-09-03T11:26:05;3.13;;;2.80;;
22213;SDS011;11276;43.566;27.824;2022-09-03T11:36:51;9.03;;;3.00;;
22213;SDS011;11276;43.566;27.824;2022-09-03T11:39:37;2.77;;;2.20;;
22213;SDS011;11276;43.566;27.824;2022-09-03T11:42:09;2.50;;;2.30;;
22213;SDS011;11276;43.566;27.824;2022-09-03T11:44:50;3.03;;;2.60;;
22213;SDS011;11276;43.566;27.824;2022-09-03T11:47:26;3.90;;;2.80;;
22213;SDS011;11276;43.566;27.824;2022-09-03T11:52:51;3.13;;;2.60;;
22213;SDS011;11276;43.566;27.824;2022-09-03T11:55:26;2.60;;;2.30;;
22213;SDS011;11276;43.566;27.824;2022-09-03T11:58:35;17.63;;;3.20;;
22213;SDS011;11276;43.566;27.824;2022-09-03T12:01:08;5.93;;;3.50;;
22213;SDS011;11276;43.566;27.824;2022-09-03T12:03:41;5.83;;;4.43;;
22213;SDS011;11276;43.566;27.824;2022-09-03T12:19:03;7.90;;;6.10;;
22213;SDS011;11276;43.566;27.824;2022-09-03T12:21:37;7.50;;;6.47;;
22213;SDS011;11276;43.566;27.824;2022-09-03T12:24:05;8.30;;;6.63;;
22213;SDS011;11276;43.566;27.824;2022-09-03T12:26:41;10.10;;;6.60;;
22213;SDS011;11276;43.566;27.824;2022-09-03T12:29:24;6.73;;;5.60;;
22213;SDS011;11276;43.566;27.824;2022-09-03T12:31:53;6.43;;;4.90;;
22213;SDS011;11276;43.566;27.824;2022-09-03T12:34:22;7.90;;;4.80;;
22213;SDS011;11276;43.566;27.824;2022-09-03T12:36:52;5.97;;;4.10;;
22213;SDS011;11276;43.566;27.824;2022-09-03T12:39:23;4.00;;;3.60;;
22213;SDS011;11276;43.566;27.824;2022-09-03T12:42:13;7.77;;;3.13;;
22213;SDS011;11276;43.566;27.824;2022-09-03T12:44:46;5.70;;;3.97;;
22213;SDS011;11276;43.566;27.824;2022-09-03T12:50:04;16.97;;;3.80;;
22213;SDS011;11276;43.566;27.824;2022-09-03T12:52:41;3.77;;;3.10;;
22213;SDS011;11276;43.566;27.824;2022-09-03T12:57:59;3.30;;;2.80;;
22213;SDS011;11276;43.566;27.824;2022-09-03T13:00:42;6.87;;;3.43;;
22213;SDS011;11276;43.566;27.824;2022-09-03T13:03:43;3.23;;;2.43;;
22213;SDS011;11276;43.566;27.824;2022-09-03T13:06:15;4.90;;;3.23;;
22213;SDS011;11276;43.566;27.824;2022-09-03T13:09:05;3.83;;;2.70;;
22213;SDS011;11276;43.566;27.824;2022-09-03T13:11:35;3.33;;;2.80;;
22213;SDS011;11276;43.566;27.824;2022-09-03T13:14:03;4.40;;;2.90;;
22213;SDS011;11276;43.566;27.824;2022-09-03T13:27:11;4.20;;;3.70;;
22213;SDS011;11276;43.566;27.824;2022-09-03T13:35:25;4.73;;;4.33;;
22213;SDS011;11276;43.566;27.824;2022-09-03T13:43:32;5.80;;;3.70;;
22213;SDS011;11276;43.566;27.824;2022-09-03T13:46:11;6.53;;;4.30;;
22213;SDS011;11276;43.566;27.824;2022-09-03T13:48:50;4.30;;;3.80;;
22213;SDS011;11276;43.566;27.824;2022-09-03T13:54:23;4.80;;;4.20;;
22213;SDS011;11276;43.566;27.824;2022-09-03T13:57:14;5.30;;;4.70;;
22213;SDS011;11276;43.566;27.824;2022-09-03T14:00:05;6.20;;;5.40;;
22213;SDS011;11276;43.566;27.824;2022-09-03T14:24:15;10.97;;;7.47;;
22213;SDS011;11276;43.566;27.824;2022-09-03T14:26:51;11.13;;;7.67;;
22213;SDS011;11276;43.566;27.824;2022-09-03T14:29:26;10.30;;;7.87;;
22213;SDS011;11276;43.566;27.824;2022-09-03T14:40:37;11.53;;;6.80;;
22213;SDS011;11276;43.566;27.824;2022-09-03T14:48:56;10.00;;;7.63;;
22213;SDS011;11276;43.566;27.824;2022-09-03T14:54:30;8.70;;;6.87;;
22213;SDS011;11276;43.566;27.824;2022-09-03T15:05:06;11.50;;;7.73;;
22213;SDS011;11276;43.566;27.824;2022-09-03T15:10:31;17.07;;;9.50;;
22213;SDS011;11276;43.566;27.824;2022-09-03T15:16:07;13.93;;;8.50;;
22213;SDS011;11276;43.566;27.824;2022-09-03T15:19:13;13.00;;;8.80;;
22213;SDS011;11276;43.566;27.824;2022-09-03T15:30:11;9.50;;;7.73;;
22213;SDS011;11276;43.566;27.824;2022-09-03T15:43:59;11.03;;;7.10;;
22213;SDS011;11276;43.566;27.824;2022-09-03T15:46:37;11.90;;;6.50;;
22213;SDS011;11276;43.566;27.824;2022-09-03T15:49:28;17.30;;;7.23;;
22213;SDS011;11276;43.566;27.824;2022-09-03T15:52:02;6.60;;;5.90;;
22213;SDS011;11276;43.566;27.824;2022-09-03T15:57:16;7.00;;;6.30;;
22213;SDS011;11276;43.566;27.824;2022-09-03T16:02:42;14.63;;;8.63;;
22213;SDS011;11276;43.566;27.824;2022-09-03T16:05:17;7.50;;;6.17;;
22213;SDS011;11276;43.566;27.824;2022-09-03T16:13:31;8.37;;;6.80;;
22213;SDS011;11276;43.566;27.824;2022-09-03T16:16:04;9.90;;;8.10;;
22213;SDS011;11276;43.566;27.824;2022-09-03T16:24:08;9.53;;;7.93;;
22213;SDS011;11276;43.566;27.824;2022-09-03T16:27:02;12.17;;;7.83;;
22213;SDS011;11276;43.566;27.824;2022-09-03T16:29:36;13.40;;;8.47;;
22213;SDS011;11276;43.566;27.824;2022-09-03T16:43:23;10.10;;;8.03;;
22213;SDS011;11276;43.566;27.824;2022-09-03T16:49:05;11.70;;;9.43;;
22213;SDS011;11276;43.566;27.824;2022-09-03T17:00:19;17.00;;;9.30;;
22213;SDS011;11276;43.566;27.824;2022-09-03T17:13:42;9.50;;;8.40;;
22213;SDS011;11276;43.566;27.824;2022-09-03T17:31:13;10.33;;;7.50;;
22213;SDS011;11276;43.566;27.824;2022-09-03T17:42:39;10.70;;;8.00;;
22213;SDS011;11276;43.566;27.824;2022-09-03T17:45:50;11.83;;;7.67;;
22213;SDS011;11276;43.566;27.824;2022-09-03T17:48:40;11.97;;;8.73;;
22213;SDS011;11276;43.566;27.824;2022-09-03T17:54:08;10.60;;;8.33;;
22213;SDS011;11276;43.566;27.824;2022-09-03T17:56:50;11.73;;;8.83;;
22213;SDS011;11276;43.566;27.824;2022-09-03T17:59:43;10.93;;;9.47;;
22213;SDS011;11276;43.566;27.824;2022-09-03T18:05:33;13.83;;;10.60;;
22213;SDS011;11276;43.566;27.824;2022-09-03T18:11:11;11.40;;;9.40;;
22213;SDS011;11276;43.566;27.824;2022-09-03T18:16:33;12.00;;;9.60;;
22213;SDS011;11276;43.566;27.824;2022-09-03T18:22:18;12.73;;;10.17;;
22213;SDS011;11276;43.566;27.824;2022-09-03T18:25:06;13.00;;;10.50;;
22213;SDS011;11276;43.566;27.824;2022-09-03T18:27:56;16.93;;;10.00;;
22213;SDS011;11276;43.566;27.824;2022-09-03T18:30:46;13.60;;;9.90;;
22213;SDS011;11276;43.566;27.824;2022-09-03T18:33:32;15.33;;;10.10;;
22213;SDS011;11276;43.566;27.824;2022-09-03T18:36:17;13.80;;;10.13;;
22213;SDS011;11276;43.566;27.824;2022-09-03T18:39:23;11.90;;;9.50;;
22213;SDS011;11276;43.566;27.824;2022-09-03T18:42:29;19.67;;;12.23;;
22213;SDS011;11276;43.566;27.824;2022-09-03T18:45:40;17.90;;;10.83;;
22213;SDS011;11276;43.566;27.824;2022-09-03T18:48:55;13.50;;;9.83;;
22213;SDS011;11276;43.566;27.824;2022-09-03T18:51:48;13.87;;;9.37;;
22213;SDS011;11276;43.566;27.824;2022-09-03T19:00:40;12.30;;;10.10;;
22213;SDS011;11276;43.566;27.824;2022-09-03T19:06:51;13.53;;;9.07;;
22213;SDS011;11276;43.566;27.824;2022-09-03T19:10:00;13.53;;;9.43;;
22213;SDS011;11276;43.566;27.824;2022-09-03T19:15:58;11.50;;;8.93;;
22213;SDS011;11276;43.566;27.824;2022-09-03T19:19:13;14.17;;;9.67;;
22213;SDS011;11276;43.566;27.824;2022-09-03T19:22:11;11.87;;;9.50;;
22213;SDS011;11276;43.566;27.824;2022-09-03T19:25:03;14.97;;;9.47;;
22213;SDS011;11276;43.566;27.824;2022-09-03T19:40:00;16.30;;;10.67;;
22213;SDS011;11276;43.566;27.824;2022-09-03T19:43:18;13.33;;;10.40;;
22213;SDS011;11276;43.566;27.824;2022-09-03T19:46:47;13.60;;;9.63;;
22213;SDS011;11276;43.566;27.824;2022-09-03T19:55:35;19.80;;;8.53;;
22213;SDS011;11276;43.566;27.824;2022-09-03T19:58:26;15.20;;;9.00;;
22213;SDS011;11276;43.566;27.824;2022-09-03T20:01:15;13.30;;;8.57;;
22213;SDS011;11276;43.566;27.824;2022-09-03T20:04:09;12.43;;;9.13;;
22213;SDS011;11276;43.566;27.824;2022-09-03T20:06:58;11.27;;;8.17;;
22213;SDS011;11276;43.566;27.824;2022-09-03T20:09:46;8.47;;;7.57;;
22213;SDS011;11276;43.566;27.824;2022-09-03T20:12:34;12.93;;;8.03;;
22213;SDS011;11276;43.566;27.824;2022-09-03T20:15:05;12.40;;;8.97;;
22213;SDS011;11276;43.566;27.824;2022-09-03T20:20:22;10.63;;;8.13;;
22213;SDS011;11276;43.566;27.824;2022-09-03T20:23:05;13.23;;;8.10;;
22213;SDS011;11276;43.566;27.824;2022-09-03T20:25:43;9.70;;;8.20;;
22213;SDS011;11276;43.566;27.824;2022-09-03T20:28:36;14.03;;;9.17;;
22213;SDS011;11276;43.566;27.824;2022-09-03T20:36:43;11.50;;;9.03;;
22213;SDS011;11276;43.566;27.824;2022-09-03T20:42:23;16.00;;;9.50;;
22213;SDS011;11276;43.566;27.824;2022-09-03T20:53:14;12.10;;;8.63;;
22213;SDS011;11276;43.566;27.824;2022-09-03T20:55:49;17.80;;;10.60;;
22213;SDS011;11276;43.566;27.824;2022-09-03T21:01:07;14.00;;;8.83;;
22213;SDS011;11276;43.566;27.824;2022-09-03T21:14:40;23.37;;;10.30;;
22213;SDS011;11276;43.566;27.824;2022-09-03T21:17:29;14.00;;;9.50;;
22213;SDS011;11276;43.566;27.824;2022-09-03T21:25:34;15.70;;;10.20;;
22213;SDS011;11276;43.566;27.824;2022-09-03T21:28:28;13.00;;;9.30;;
22213;SDS011;11276;43.566;27.824;2022-09-03T21:30:59;13.50;;;9.40;;
22213;SDS011;11276;43.566;27.824;2022-09-03T21:33:34;11.03;;;9.07;;
22213;SDS011;11276;43.566;27.824;2022-09-03T21:36:23;15.80;;;9.20;;
22213;SDS011;11276;43.566;27.824;2022-09-03T21:39:02;16.53;;;9.93;;
22213;SDS011;11276;43.566;27.824;2022-09-03T21:41:44;12.00;;;9.10;;
22213;SDS011;11276;43.566;27.824;2022-09-03T21:47:13;22.27;;;11.03;;
22213;SDS011;11276;43.566;27.824;2022-09-03T21:52:10;18.73;;;9.63;;
22213;SDS011;11276;43.566;27.824;2022-09-03T21:54:42;12.80;;;9.50;;
22213;SDS011;11276;43.566;27.824;2022-09-03T21:57:19;16.63;;;10.40;;
22213;SDS011;11276;43.566;27.824;2022-09-03T22:02:37;12.20;;;9.87;;
22213;SDS011;11276;43.566;27.824;2022-09-03T22:05:06;13.93;;;10.57;;
22213;SDS011;11276;43.566;27.824;2022-09-03T22:10:23;17.23;;;11.70;;
22213;SDS011;11276;43.566;27.824;2022-09-03T22:16:04;17.53;;;11.70;;
22213;SDS011;11276;43.566;27.824;2022-09-03T22:18:42;17.03;;;12.00;;
22213;SDS011;11276;43.566;27.824;2022-09-03T22:21:31;15.00;;;11.00;;
22213;SDS011;11276;43.566;27.824;2022-09-03T22:24:10;20.53;;;11.67;;
22213;SDS011;11276;43.566;27.824;2022-09-03T22:32:10;16.30;;;12.33;;
22213;SDS011;11276;43.566;27.824;2022-09-03T22:43:22;18.57;;;11.50;;